Time;durP1;ratioP1;P1;durP2;ratioP2;P2;SDS_P1;SDS_P2;PMS_P1;PMS_P2;Temp;Humidity;BMP_temperature;BMP_pressure;BME280_temperature;BME280_humidity;BME280_pressure;Samples;Min_cycle;Max_cycle;Signal;HPM_P1;HPM_P2
2022/03/02 00:02:16;;;;;;;13.77;6.20;;;;;;;-0.64;45.72;101414.22;5589458;31;33891;-62
2022/03/02 00:05:20;;;;;;;13.02;6.18;;;;;;;-0.62;49.95;101414.97;5589628;31;34744;-62
2022/03/02 00:08:22;;;;;;;17.27;6.43;;;;;;;-0.62;48.62;101420.16;5589692;31;33939;-62
2022/03/02 00:11:27;;;;;;;12.35;5.53;;;;;;;-0.67;47.08;101414.31;5589573;31;33922;-62
2022/03/02 00:14:30;;;;;;;17.50;6.00;;;;;;;-0.68;47.12;101409.22;5589458;31;34025;-62
2022/03/02 00:17:32;;;;;;;19.15;6.60;;;;;;;-0.72;48.00;101400.66;5589468;31;34018;-62
2022/03/02 00:20:35;;;;;;;20.27;7.10;;;;;;;-0.73;47.64;101400.75;5589580;31;33858;-62
2022/03/02 00:23:38;;;;;;;16.50;6.90;;;;;;;-0.76;47.51;101406.09;5589452;31;34113;-63
2022/03/02 00:26:42;;;;;;;12.90;6.12;;;;;;;-0.78;47.56;101403.59;5588495;31;33997;-61
2022/03/02 00:29:45;;;;;;;13.13;5.68;;;;;;;-0.82;47.73;101406.41;5589187;31;34053;-62
2022/03/02 00:32:48;;;;;;;16.20;6.43;;;;;;;-0.89;48.44;101405.81;5589670;31;34322;-63
2022/03/02 00:35:51;;;;;;;15.32;6.28;;;;;;;-1.00;50.44;101397.62;5589361;31;34653;-63
2022/03/02 00:38:53;;;;;;;11.93;6.18;;;;;;;-1.09;51.33;101401.50;5589566;31;33994;-62
2022/03/02 00:41:56;;;;;;;13.82;6.10;;;;;;;-1.13;52.21;101393.91;5589240;31;33953;-62
2022/03/02 00:44:59;;;;;;;17.65;7.25;;;;;;;-1.20;52.85;101389.87;5589158;31;34037;-63
2022/03/02 00:48:03;;;;;;;15.32;6.87;;;;;;;-1.26;53.34;101387.56;5589079;31;34049;-63
2022/03/02 00:51:06;;;;;;;18.00;7.53;;;;;;;-1.35;54.92;101381.84;5589142;31;33960;-62
2022/03/02 00:54:10;;;;;;;16.02;7.12;;;;;;;-1.44;55.51;101377.03;5588960;31;34565;-62
2022/03/02 00:57:13;;;;;;;15.55;7.85;;;;;;;-1.44;55.87;101374.44;5588205;31;34612;-63
2022/03/02 01:00:18;;;;;;;16.62;7.65;;;;;;;-1.46;55.81;101367.62;5588891;31;34577;-62
2022/03/02 01:03:20;;;;;;;15.57;7.90;;;;;;;-1.28;55.87;101365.94;5588848;31;34031;-62
2022/03/02 01:06:23;;;;;;;15.93;7.75;;;;;;;-1.41;55.74;101357.84;5589180;31;34011;-63
2022/03/02 01:09:26;;;;;;;15.98;7.97;;;;;;;-1.54;56.27;101357.53;5589084;31;34607;-62
2022/03/02 01:12:29;;;;;;;20.77;9.32;;;;;;;-1.52;56.63;101355.72;5589049;31;34602;-63
2022/03/02 01:15:32;;;;;;;15.68;8.85;;;;;;;-1.34;56.63;101347.09;5591219;31;34350;-63
2022/03/02 01:18:35;;;;;;;17.52;9.40;;;;;;;-1.25;55.75;101348.44;5591120;31;33956;-62
2022/03/02 01:21:38;;;;;;;23.02;9.77;;;;;;;-1.38;55.68;101344.69;5591103;31;34670;-62
2022/03/02 01:24:41;;;;;;;22.25;10.00;;;;;;;-1.50;56.08;101335.66;5591185;31;34108;-62
2022/03/02 01:27:43;;;;;;;21.50;10.20;;;;;;;-1.59;57.28;101333.47;5590969;31;34656;-62
2022/03/02 01:30:46;;;;;;;17.50;10.07;;;;;;;-1.76;57.46;101330.78;5590779;31;34508;-62
2022/03/02 01:33:50;;;;;;;21.52;10.63;;;;;;;-1.74;57.73;101325.50;5590872;31;33843;-63
2022/03/02 01:36:53;;;;;;;23.05;10.25;;;;;;;-2.03;58.39;101319.78;5591272;31;34320;-63
2022/03/02 01:39:55;;;;;;;23.12;10.48;;;;;;;-2.13;59.08;101321.06;5591257;31;34213;-61
2022/03/02 01:42:58;;;;;;;22.65;10.98;;;;;;;-2.18;58.65;101310.06;5590113;31;34596;-61
2022/03/02 01:46:01;;;;;;;22.27;10.68;;;;;;;-2.26;59.39;101325.09;5591165;31;34419;-62
2022/03/02 01:49:05;;;;;;;24.95;10.73;;;;;;;-2.34;59.92;101319.38;5590852;31;33876;-62
2022/03/02 01:52:07;;;;;;;23.45;11.88;;;;;;;-2.39;60.13;101319.56;5591098;31;35247;-62
2022/03/02 01:55:13;;;;;;;23.40;10.30;;;;;;;-2.28;61.46;101313.94;5590690;31;34599;-62
2022/03/02 01:58:15;;;;;;;22.98;11.38;;;;;;;-1.98;60.15;101314.38;5590673;31;34320;-62
2022/03/02 02:01:19;;;;;;;25.02;11.50;;;;;;;-2.24;59.68;101305.94;5590520;31;34860;-61
2022/03/02 02:04:22;;;;;;;25.65;11.82;;;;;;;-2.34;60.21;101307.25;5590749;31;33845;-62
2022/03/02 02:07:26;;;;;;;23.25;11.43;;;;;;;-2.44;60.58;101308.53;5590698;31;33957;-62
2022/03/02 02:10:29;;;;;;;22.83;11.12;;;;;;;-2.53;61.44;101305.47;5589899;31;33977;-63
2022/03/02 02:13:34;;;;;;;22.13;11.38;;;;;;;-2.42;63.48;101303.28;5590630;31;33947;-62
2022/03/02 02:16:37;;;;;;;22.02;10.95;;;;;;;-2.55;64.00;101299.47;5590517;31;34004;-62
2022/03/02 02:19:39;;;;;;;23.12;11.60;;;;;;;-2.60;65.53;101304.84;5590544;31;33868;-61
2022/03/02 02:22:46;;;;;;;24.25;12.23;;;;;;;-2.67;66.07;101293.03;5590622;31;34550;-62
2022/03/02 02:25:49;;;;;;;28.30;12.05;;;;;;;-2.74;66.77;101295.03;5590410;31;33963;-62
2022/03/02 02:28:53;;;;;;;28.73;13.18;;;;;;;-2.78;67.50;101292.59;5590363;31;34064;-61
2022/03/02 02:31:56;;;;;;;24.60;12.63;;;;;;;-2.72;69.70;101295.81;5585670;31;144539;-61
2022/03/02 02:34:59;;;;;;;27.37;12.93;;;;;;;-2.62;69.94;101298.03;5590523;31;33831;-62
2022/03/02 02:38:02;;;;;;;27.17;12.73;;;;;;;-2.68;69.60;101288.75;5590443;31;33913;-62
2022/03/02 02:41:04;;;;;;;27.48;12.85;;;;;;;-2.72;70.30;101294.97;5590349;31;34049;-62
2022/03/02 02:44:07;;;;;;;27.80;12.25;;;;;;;-2.64;70.91;101300.69;5590312;31;35224;-62
2022/03/02 02:47:11;;;;;;;20.77;12.07;;;;;;;-2.26;70.77;101299.13;5590246;31;33932;-62
2022/03/02 02:50:26;;;;;;;24.20;12.40;;;;;;;-2.20;70.94;101297.13;5590299;31;34062;-62
2022/03/02 02:53:29;;;;;;;24.20;12.13;;;;;;;-2.07;69.36;101286.19;5590250;31;34570;-61
2022/03/02 02:56:32;;;;;;;21.60;10.73;;;;;;;-2.27;67.90;101287.87;5590152;31;33941;-62
2022/03/02 02:59:35;;;;;;;21.10;10.65;;;;;;;-2.26;66.30;101294.75;5590619;31;33967;-62
2022/03/02 03:02:39;;;;;;;20.42;9.70;;;;;;;-2.24;63.98;101292.97;5590035;31;34963;-62
2022/03/02 03:05:44;;;;;;;18.50;8.93;;;;;;;-2.25;61.25;101296.47;5589523;31;34647;-62
2022/03/02 03:08:46;;;;;;;19.95;9.15;;;;;;;-2.22;60.75;101292.88;5590181;31;34322;-62
2022/03/02 03:11:49;;;;;;;20.77;9.65;;;;;;;-2.27;60.96;101295.66;5590361;31;34695;-62
2022/03/02 03:14:52;;;;;;;15.50;8.50;;;;;;;-2.33;60.30;101302.91;5590123;31;34556;-62
2022/03/02 03:17:55;;;;;;;20.20;9.20;;;;;;;-2.51;60.12;101301.87;5590103;31;34621;-62
2022/03/02 03:20:58;;;;;;;19.33;9.52;;;;;;;-2.45;60.02;101303.38;5590098;31;33905;-62
2022/03/02 03:24:01;;;;;;;25.37;9.35;;;;;;;-2.53;60.53;101300.25;5590080;31;34684;-62
2022/03/02 03:27:03;;;;;;;20.42;8.85;;;;;;;-2.37;60.44;101296.97;5589925;31;34311;-62
2022/03/02 03:30:08;;;;;;;17.05;8.65;;;;;;;-2.54;60.22;101291.63;5589880;31;33889;-63
2022/03/02 03:33:10;;;;;;;15.60;8.40;;;;;;;-2.66;60.92;101297.28;5589736;31;34837;-62
2022/03/02 03:36:13;;;;;;;20.88;9.00;;;;;;;-2.50;60.44;101287.97;5589336;31;34060;-62
2022/03/02 03:39:16;;;;;;;15.43;8.68;;;;;;;-2.43;60.10;101288.59;5589796;31;34609;-62
2022/03/02 03:42:19;;;;;;;18.75;8.77;;;;;;;-2.50;60.04;101295.78;5589921;31;33934;-63
2022/03/02 03:45:21;;;;;;;20.98;8.90;;;;;;;-2.77;60.79;101289.97;5589837;31;34677;-62
2022/03/02 03:48:24;;;;;;;20.98;9.23;;;;;;;-2.89;61.11;101289.59;5589784;31;34577;-62
2022/03/02 03:51:27;;;;;;;20.80;8.88;;;;;;;-2.98;61.75;101290.78;5590153;31;33927;-63
2022/03/02 03:54:30;;;;;;;15.60;7.80;;;;;;;-2.82;61.77;101296.25;5575941;31;34037;-62
2022/03/02 03:57:32;;;;;;;19.92;8.10;;;;;;;-2.78;61.77;101297.81;5589784;31;34698;-62
2022/03/02 04:00:35;;;;;;;18.77;8.27;;;;;;;-2.45;59.64;101288.63;5589703;31;34380;-62
2022/03/02 04:03:38;;;;;;;15.50;7.95;;;;;;;-2.36;59.59;101282.22;5589473;31;34799;-63
2022/03/02 04:06:41;;;;;;;18.62;8.00;;;;;;;-2.53;59.97;101287.28;5589575;31;33919;-61
2022/03/02 04:09:43;;;;;;;16.23;7.80;;;;;;;-2.62;59.53;101278.13;5589600;31;34009;-62
2022/03/02 04:12:46;;;;;;;15.65;7.22;;;;;;;-2.45;58.74;101280.00;5589464;31;34003;-62
2022/03/02 04:15:50;;;;;;;18.27;6.97;;;;;;;-2.38;58.52;101281.44;5588789;31;34567;-62
2022/03/02 04:18:52;;;;;;;18.75;7.75;;;;;;;-2.54;59.58;101278.63;5589546;31;34507;-62
2022/03/02 04:21:55;;;;;;;15.07;7.20;;;;;;;-2.70;60.29;101273.22;5589452;31;33976;-62
2022/03/02 04:24:58;;;;;;;16.35;6.87;;;;;;;-2.54;59.31;101270.84;5589728;31;34015;-62
2022/03/02 04:28:00;;;;;;;16.27;6.75;;;;;;;-2.51;59.12;101278.50;5589384;31;33990;-62
2022/03/02 04:31:03;;;;;;;15.30;7.35;;;;;;;-2.57;60.26;101275.31;5588510;31;33952;-62
2022/03/02 04:34:06;;;;;;;16.48;7.45;;;;;;;-2.47;58.63;101277.47;5589275;31;34142;-61
2022/03/02 04:37:09;;;;;;;16.83;7.45;;;;;;;-2.39;58.58;101272.81;5588558;31;33935;-62
2022/03/02 04:40:13;;;;;;;15.18;6.68;;;;;;;-2.52;59.51;101275.97;5589268;31;33884;-62
2022/03/02 04:43:17;;;;;;;14.93;7.47;;;;;;;-2.72;59.62;101264.66;5589244;31;34633;-62
2022/03/02 04:46:20;;;;;;;16.05;6.80;;;;;;;-2.71;60.07;101270.69;5588967;31;34360;-62
2022/03/02 04:49:22;;;;;;;18.65;7.78;;;;;;;-2.76;60.24;101264.84;5588162;31;34625;-62
2022/03/02 04:52:25;;;;;;;12.70;7.00;;;;;;;-2.95;61.29;101262.09;5589199;31;34024;-62
2022/03/02 04:55:28;;;;;;;14.63;6.72;;;;;;;-2.76;60.84;101262.25;5588985;31;33964;-62
2022/03/02 04:58:31;;;;;;;15.85;7.87;;;;;;;-2.73;60.83;101262.97;5589017;31;33889;-62
2022/03/02 05:01:33;;;;;;;15.35;7.37;;;;;;;-2.91;61.82;101262.84;5588976;31;34464;-62
2022/03/02 05:04:36;;;;;;;14.85;7.45;;;;;;;-2.82;60.63;101252.94;5588797;31;34243;-62
2022/03/02 05:07:40;;;;;;;16.33;8.20;;;;;;;-2.76;60.74;101252.66;5588890;31;35209;-62
2022/03/02 05:10:42;;;;;;;22.48;8.80;;;;;;;-2.71;62.22;101250.72;5588864;31;34393;-62
2022/03/02 05:13:45;;;;;;;22.30;11.23;;;;;;;-2.85;63.47;101255.66;5588754;31;34270;-62
2022/03/02 05:16:48;;;;;;;28.80;11.65;;;;;;;-2.89;65.48;101245.44;5588932;31;33882;-63
2022/03/02 05:19:51;;;;;;;25.33;12.30;;;;;;;-2.99;66.52;101241.53;5588120;31;34054;-62
2022/03/02 05:22:54;;;;;;;25.27;12.20;;;;;;;-2.95;67.35;101251.72;5588557;31;34635;-61
2022/03/02 05:25:56;;;;;;;31.00;13.60;;;;;;;-2.89;67.83;101256.69;5588385;31;33960;-61
2022/03/02 05:28:59;;;;;;;32.53;16.15;;;;;;;-3.07;68.83;101250.47;5588345;31;34033;-61
2022/03/02 05:32:03;;;;;;;33.70;15.95;;;;;;;-3.05;68.65;101249.56;5588221;31;34017;-61
2022/03/02 05:35:07;;;;;;;33.58;15.25;;;;;;;-3.14;70.10;101246.41;5588109;31;34157;-62
2022/03/02 05:38:10;;;;;;;34.65;15.35;;;;;;;-3.26;70.10;101252.09;5588115;31;34601;-61
2022/03/02 05:41:13;;;;;;;31.00;14.70;;;;;;;-3.39;70.40;101242.25;5588054;31;34685;-63
2022/03/02 05:44:15;;;;;;;29.40;14.57;;;;;;;-3.31;72.02;101243.66;5588113;31;33937;-62
2022/03/02 05:47:18;;;;;;;36.33;13.60;;;;;;;-3.05;71.26;101245.22;5588013;31;34157;-62
2022/03/02 05:50:21;;;;;;;26.35;11.73;;;;;;;-3.12;70.34;101242.03;5587167;31;33943;-62
2022/03/02 05:53:24;;;;;;;30.92;12.20;;;;;;;-3.10;69.42;101244.56;5587229;31;33898;-62
2022/03/02 05:56:26;;;;;;;26.02;12.43;;;;;;;-3.11;69.34;101237.69;5587828;31;33880;-62
2022/03/02 05:59:29;;;;;;;26.10;12.20;;;;;;;-3.10;69.19;101232.41;5589572;31;33986;-62
2022/03/02 06:02:32;;;;;;;27.60;11.73;;;;;;;-3.00;69.64;101239.84;5591082;31;33855;-62
2022/03/02 06:05:35;;;;;;;27.17;12.35;;;;;;;-2.84;69.22;101244.34;5590553;31;34065;-62
2022/03/02 06:08:37;;;;;;;24.77;11.98;;;;;;;-2.56;68.28;101243.22;5590580;31;34039;-62
2022/03/02 06:11:43;;;;;;;27.37;12.15;;;;;;;-2.47;68.17;101248.06;5590495;31;34089;-62
2022/03/02 06:14:45;;;;;;;27.80;10.13;;;;;;;-2.37;67.69;101244.97;5590523;31;34620;-61
2022/03/02 06:17:48;;;;;;;20.90;9.75;;;;;;;-2.23;67.06;101247.03;5590497;31;33901;-61
2022/03/02 06:20:52;;;;;;;23.75;10.35;;;;;;;-2.12;66.95;101239.59;5590412;31;33906;-61
2022/03/02 06:23:56;;;;;;;25.88;10.70;;;;;;;-1.92;66.26;101244.78;5590776;31;34537;-62
2022/03/02 06:26:59;;;;;;;24.33;10.50;;;;;;;-1.73;65.67;101256.94;5590354;31;34709;-62
2022/03/02 06:30:04;;;;;;;27.10;11.25;;;;;;;-1.61;65.02;101249.47;5590028;31;34232;-62
2022/03/02 06:33:11;;;;;;;24.65;10.50;;;;;;;-1.57;64.54;101252.75;5590160;31;33977;-62
2022/03/02 06:36:15;;;;;;;25.62;9.68;;;;;;;-1.55;64.52;101253.53;5590200;31;34080;-61
2022/03/02 06:39:20;;;;;;;25.90;9.48;;;;;;;-1.45;63.98;101254.78;5589924;31;34385;-62
2022/03/02 06:42:27;;;;;;;20.37;9.32;;;;;;;-1.32;63.48;101250.72;5590467;31;34914;-62
2022/03/02 06:45:39;;;;;;;25.73;9.18;;;;;;;-1.11;62.92;101243.66;5589507;31;33948;-61
2022/03/02 06:48:57;;;;;;;21.80;9.10;;;;;;;-0.66;61.64;101238.84;5589579;31;34546;-61
2022/03/02 06:52:02;;;;;;;29.05;9.27;;;;;;;0.05;59.78;101231.72;5589643;31;34064;-62
2022/03/02 06:55:08;;;;;;;25.30;8.40;;;;;;;0.68;57.72;101227.44;5589499;31;34660;-62
2022/03/02 06:58:12;;;;;;;18.62;7.87;;;;;;;0.98;54.80;101221.44;5589721;31;33926;-62
2022/03/02 07:01:24;;;;;;;16.20;7.55;;;;;;;1.45;52.94;101226.59;5589778;31;33921;-62
2022/03/02 07:04:27;;;;;;;16.65;7.50;;;;;;;1.03;52.82;101225.47;5589513;31;33902;-62
2022/03/02 07:07:30;;;;;;;19.60;7.95;;;;;;;0.69;53.81;101231.72;5589527;31;34073;-62
2022/03/02 07:10:35;;;;;;;24.65;7.95;;;;;;;0.63;54.10;101224.22;5588625;31;34663;-62
2022/03/02 07:13:38;;;;;;;20.25;7.97;;;;;;;0.53;54.10;101220.47;5589411;31;34392;-61
2022/03/02 07:16:43;;;;;;;19.73;7.43;;;;;;;0.57;54.27;101227.19;5589334;31;34413;-62
2022/03/02 07:19:46;;;;;;;17.55;7.47;;;;;;;0.63;53.36;101223.41;5590120;31;35082;-62
2022/03/02 07:22:54;;;;;;;16.52;7.70;;;;;;;0.65;53.75;101219.78;5589398;31;34707;-62
2022/03/02 07:25:59;;;;;;;19.90;7.82;;;;;;;0.75;53.29;101214.88;5589455;31;33867;-61
2022/03/02 07:29:07;;;;;;;15.88;7.40;;;;;;;1.01;52.74;101209.06;5589729;31;34102;-62
2022/03/02 07:32:13;;;;;;;20.77;6.70;;;;;;;1.03;52.17;101214.19;5589088;31;33997;-63
2022/03/02 07:35:16;;;;;;;13.80;6.30;;;;;;;1.21;51.79;101219.19;5589277;31;34111;-62
2022/03/02 07:38:21;;;;;;;14.43;6.12;;;;;;;1.29;50.62;101203.09;5589574;31;34873;-62
2022/03/02 07:41:23;;;;;;;14.35;5.50;;;;;;;1.61;49.67;101195.97;5589508;31;34577;-62
2022/03/02 07:44:27;;;;;;;18.33;5.68;;;;;;;1.65;49.12;101200.94;5589926;31;33866;-62
2022/03/02 07:47:32;;;;;;;11.38;4.93;;;;;;;2.10;46.44;101199.09;5589477;31;33893;-62
2022/03/02 07:50:35;;;;;;;17.80;5.95;;;;;;;2.70;44.59;101193.59;5589962;31;34603;-62
2022/03/02 07:53:43;;;;;;;11.75;5.30;;;;;;;3.79;42.54;101189.78;5589405;31;33926;-62
2022/03/02 07:56:47;;;;;;;11.12;4.70;;;;;;;5.25;39.02;101179.28;5589558;31;34625;-62
2022/03/02 07:59:51;;;;;;;14.87;5.97;;;;;;;6.80;35.70;101167.16;5589244;31;35451;-63
2022/03/02 08:02:57;;;;;;;15.63;5.00;;;;;;;6.20;36.26;101171.06;5589580;31;33979;-63
2022/03/02 08:06:00;;;;;;;16.67;4.87;;;;;;;7.09;34.91;101167.41;5589363;31;34058;-64
2022/03/02 08:09:05;;;;;;;10.30;5.10;;;;;;;7.66;33.97;101167.84;5589177;31;34873;-64
2022/03/02 08:12:09;;;;;;;9.82;5.40;;;;;;;8.09;33.29;101172.94;5589437;31;34049;-64
2022/03/02 08:15:13;;;;;;;10.77;5.10;;;;;;;8.61;31.95;101168.41;5589592;31;34060;-64
2022/03/02 08:18:17;;;;;;;13.25;5.53;;;;;;;8.52;31.80;101167.41;5589390;31;34636;-64
2022/03/02 08:21:31;;;;;;;12.27;5.32;;;;;;;8.80;31.31;101168.44;5589106;31;33933;-64
2022/03/02 08:24:41;;;;;;;9.38;5.00;;;;;;;9.43;30.41;101168.87;5589300;31;34082;-64
2022/03/02 08:27:44;;;;;;;8.93;5.20;;;;;;;10.02;28.55;101160.66;5589108;31;34635;-65
2022/03/02 08:30:52;;;;;;;12.60;5.37;;;;;;;11.68;26.96;101161.88;5589110;31;33908;-65
2022/03/02 08:33:57;;;;;;;12.37;4.53;;;;;;;12.64;25.86;101155.37;5589346;31;34135;-65
2022/03/02 08:37:01;;;;;;;9.82;5.07;;;;;;;12.21;25.28;101155.56;5589167;31;33952;-64
2022/03/02 08:40:05;;;;;;;10.00;5.07;;;;;;;11.50;26.50;101145.16;5589129;31;34223;-65
2022/03/02 08:43:08;;;;;;;10.57;4.80;;;;;;;12.66;25.27;101149.91;5589036;31;34689;-64
2022/03/02 08:46:11;;;;;;;9.73;4.53;;;;;;;10.26;28.57;101153.03;5589192;31;34572;-65
2022/03/02 08:49:16;;;;;;;8.80;4.40;;;;;;;11.90;26.64;101144.63;5588992;31;33984;-65
2022/03/02 08:52:24;;;;;;;8.15;4.62;;;;;;;11.44;26.54;101143.09;5589381;31;33956;-65
2022/03/02 08:55:32;;;;;;;10.60;4.87;;;;;;;9.54;29.08;101140.41;5588520;31;33936;-63
2022/03/02 08:58:37;;;;;;;9.48;4.28;;;;;;;6.88;32.63;101141.84;5588898;31;34114;-65
2022/03/02 09:01:43;;;;;;;9.05;4.53;;;;;;;6.44;33.38;101141.94;5588741;31;34700;-65
2022/03/02 09:04:48;;;;;;;10.43;5.25;;;;;;;6.16;34.54;101139.84;5588416;31;34914;-64
2022/03/02 09:07:51;;;;;;;9.82;5.28;;;;;;;5.50;36.67;101128.28;5588677;31;35230;-63
2022/03/02 09:10:53;;;;;;;11.55;5.70;;;;;;;5.12;37.95;101126.75;5588671;31;34418;-63
2022/03/02 09:13:56;;;;;;;9.07;4.85;;;;;;;4.92;38.52;101118.66;5588751;31;33892;-63
2022/03/02 09:17:00;;;;;;;11.70;5.18;;;;;;;4.85;38.39;101125.31;5588509;31;35131;-63
2022/03/02 09:20:07;;;;;;;9.68;4.60;;;;;;;4.80;36.88;101120.41;5588386;31;34697;-63
2022/03/02 09:23:10;;;;;;;11.30;5.47;;;;;;;4.79;36.98;101122.19;5588787;31;34639;-63
2022/03/02 09:26:18;;;;;;;9.88;4.70;;;;;;;4.35;38.61;101116.72;5588304;31;34008;-63
2022/03/02 09:29:22;;;;;;;8.90;4.62;;;;;;;4.46;37.84;101113.28;5588378;31;34000;-63
2022/03/02 09:32:27;;;;;;;9.65;4.62;;;;;;;4.33;38.33;101108.09;5588510;31;33940;-62
2022/03/02 09:35:32;;;;;;;11.20;5.07;;;;;;;4.15;39.60;101110.25;5590705;31;34270;-62
2022/03/02 09:38:37;;;;;;;15.35;5.20;;;;;;;4.35;38.80;101109.69;5590856;31;33986;-63
2022/03/02 09:41:54;;;;;;;10.70;5.07;;;;;;;4.48;39.35;101103.53;5590781;31;34277;-63
2022/03/02 09:45:08;;;;;;;12.52;4.78;;;;;;;4.41;38.55;101091.75;5590864;31;35274;-62
2022/03/02 09:48:24;;;;;;;11.80;5.10;;;;;;;4.55;38.68;101102.16;5590690;31;33987;-63
2022/03/02 09:51:31;;;;;;;10.07;4.78;;;;;;;4.43;37.85;101100.38;5589879;31;34409;-63
2022/03/02 09:54:36;;;;;;;11.90;5.12;;;;;;;4.49;37.30;101090.28;5590808;31;34014;-63
2022/03/02 09:57:45;;;;;;;13.80;5.47;;;;;;;4.60;36.52;101092.94;5590058;31;33975;-63
2022/03/02 10:00:48;;;;;;;12.13;5.43;;;;;;;4.69;36.13;101084.41;5590355;31;33157;-63
2022/03/02 10:03:54;;;;;;;13.20;4.87;;;;;;;4.69;37.54;101086.19;5590521;31;35110;-63
2022/03/02 10:10:23;;;;;;;11.05;5.25;;;;;;;4.69;35.74;101078.31;5590163;31;33913;-62
2022/03/02 10:13:26;;;;;;;8.63;4.85;;;;;;;4.56;35.29;101073.09;5590117;31;34772;-63
2022/03/02 10:16:35;;;;;;;10.57;4.97;;;;;;;4.78;35.14;101064.50;5590493;31;35254;-63
2022/03/02 10:20:03;;;;;;;13.13;5.40;;;;;;;4.98;35.00;101058.59;5590622;31;33972;-63
2022/03/02 10:23:25;;;;;;;10.73;4.80;;;;;;;4.78;35.75;101057.44;5590448;31;33993;-62
2022/03/02 10:26:34;;;;;;;9.68;5.35;;;;;;;4.69;35.58;101050.25;5590286;31;34281;-63
2022/03/02 10:29:56;;;;;;;10.27;5.18;;;;;;;4.78;34.82;101057.44;5590326;31;34531;-63
2022/03/02 10:33:18;;;;;;;9.30;4.78;;;;;;;5.07;34.23;101062.31;5590050;31;34398;-64
2022/03/02 10:36:24;;;;;;;11.50;5.05;;;;;;;5.21;33.11;101046.31;5589488;31;35236;-62
2022/03/02 10:39:38;;;;;;;10.98;5.12;;;;;;;5.11;34.67;101042.72;5590512;31;35232;-61
2022/03/02 10:42:56;;;;;;;15.88;5.60;;;;;;;5.18;34.84;101039.47;5590210;31;33996;-63
2022/03/02 10:46:02;;;;;;;15.50;4.82;;;;;;;5.07;35.12;101036.84;5591648;31;34144;-63
2022/03/02 10:49:13;;;;;;;9.48;4.62;;;;;;;5.26;34.23;101033.66;5590480;31;33842;-63
2022/03/02 10:52:21;;;;;;;9.73;4.90;;;;;;;5.06;34.49;101024.66;5589354;31;33725;-63
2022/03/02 10:55:25;;;;;;;9.68;4.80;;;;;;;5.06;35.03;101022.03;5590056;31;33974;-63
2022/03/02 10:58:29;;;;;;;13.38;5.55;;;;;;;5.26;35.30;101009.97;5589886;31;33974;-64
2022/03/02 11:01:33;;;;;;;13.32;5.32;;;;;;;5.31;34.85;101007.81;5590055;31;34330;-63
2022/03/02 11:04:38;;;;;;;11.82;4.85;;;;;;;5.37;35.01;101001.25;5589928;31;34664;-64
2022/03/02 11:07:42;;;;;;;10.45;4.80;;;;;;;5.64;33.72;100997.28;5589805;31;34513;-63
2022/03/02 11:10:46;;;;;;;9.45;4.43;;;;;;;5.68;33.93;100990.81;5590090;31;33964;-63
2022/03/02 11:13:52;;;;;;;9.20;4.55;;;;;;;5.64;33.43;100997.28;5590092;31;34057;-64
2022/03/02 11:17:16;;;;;;;8.57;4.45;;;;;;;6.04;32.90;100991.50;5588884;31;34137;-63
2022/03/02 11:20:29;;;;;;;9.20;4.70;;;;;;;5.88;32.01;100989.28;5590190;31;35327;-63
2022/03/02 11:23:52;;;;;;;11.18;4.72;;;;;;;7.21;30.68;100979.06;5592659;31;33866;-62
2022/03/02 11:26:55;;;;;;;10.68;4.40;;;;;;;10.13;26.84;100974.88;5590693;31;34638;-63
2022/03/02 11:30:11;;;;;;;11.50;4.72;;;;;;;13.93;22.32;100967.06;5589670;31;34596;-63
2022/03/02 11:33:16;;;;;;;8.75;4.85;;;;;;;13.88;21.97;100956.94;5589480;31;34688;-64
2022/03/02 11:36:19;;;;;;;11.15;4.62;;;;;;;13.20;22.96;100951.38;5589643;31;34589;-64
2022/03/02 11:39:24;;;;;;;8.32;4.80;;;;;;;18.29;17.98;100947.59;5589848;31;34049;-64
2022/03/02 11:42:32;;;;;;;7.37;4.45;;;;;;;18.05;17.80;100947.12;5589556;31;34199;-64
2022/03/02 11:45:36;;;;;;;9.07;4.80;;;;;;;18.13;17.63;100949.63;5589395;31;34845;-64
2022/03/02 11:48:41;;;;;;;8.82;5.18;;;;;;;16.76;18.17;100942.50;5589207;31;34740;-64
2022/03/02 11:51:44;;;;;;;8.18;5.25;;;;;;;15.20;20.13;100935.16;5589213;31;33852;-65
2022/03/02 11:54:56;;;;;;;8.90;4.47;;;;;;;13.66;21.37;100932.84;5588366;31;33969;-66
2022/03/02 11:58:00;;;;;;;15.40;5.10;;;;;;;16.22;18.69;100936.00;5588631;31;34015;-65
2022/03/02 12:01:06;;;;;;;8.43;4.60;;;;;;;15.83;19.20;100925.72;5589129;31;34617;-66
2022/03/02 12:04:10;;;;;;;7.05;4.45;;;;;;;15.62;19.80;100919.31;5589366;31;34088;-66
2022/03/02 12:07:13;;;;;;;8.68;4.85;;;;;;;15.61;19.38;100922.16;5589020;31;33888;-66
2022/03/02 12:10:25;;;;;;;8.43;4.90;;;;;;;14.55;20.51;100917.09;5589511;31;34008;-65
2022/03/02 12:13:29;;;;;;;7.93;4.95;;;;;;;13.49;21.63;100911.63;5589201;31;34083;-66
2022/03/02 12:16:51;;;;;;;8.13;4.87;;;;;;;17.99;18.05;100904.16;5589539;31;33862;-65
2022/03/02 12:19:56;;;;;;;13.85;7.45;;;;;;;14.99;20.07;100905.66;5589791;31;34252;-66
2022/03/02 12:23:00;;;;;;;11.80;5.28;;;;;;;13.92;21.64;100901.37;5589329;31;34358;-65
2022/03/02 12:26:04;;;;;;;11.27;5.35;;;;;;;18.46;17.37;100893.25;5589599;31;34642;-65
2022/03/02 12:29:08;;;;;;;12.32;5.20;;;;;;;16.75;18.90;100894.47;5589078;31;34654;-66
2022/03/02 12:32:16;;;;;;;8.25;4.90;;;;;;;19.84;16.50;100884.87;5588238;31;34298;-66
2022/03/02 12:35:23;;;;;;;9.43;5.32;;;;;;;19.87;16.19;100886.28;5588667;31;34583;-66
2022/03/02 12:38:25;;;;;;;13.13;5.70;;;;;;;19.47;16.39;100885.66;5589384;31;34047;-66
2022/03/02 12:41:29;;;;;;;14.05;4.95;;;;;;;21.96;14.46;100885.28;5589219;31;34666;-66
2022/03/02 12:44:35;;;;;;;8.05;5.10;;;;;;;;;;5589032;31;35105;-66
2022/03/02 12:47:39;;;;;;;10.60;5.40;;;;;;;21.87;14.38;100877.72;5589204;31;34568;-67
2022/03/02 12:50:47;;;;;;;11.50;5.40;;;;;;;21.01;15.05;100867.13;5588674;31;34108;-66
2022/03/02 12:53:50;;;;;;;8.35;5.03;;;;;;;20.68;15.58;100860.19;5588986;31;33947;-65
2022/03/02 12:56:53;;;;;;;10.68;5.20;;;;;;;16.39;19.00;100849.88;5588974;31;33882;-66
2022/03/02 12:59:58;;;;;;;10.23;5.00;;;;;;;16.53;18.62;100848.94;5588764;31;34209;-65
2022/03/02 13:03:06;;;;;;;10.43;4.87;;;;;;;17.73;17.63;100851.22;5588584;31;34078;-66
2022/03/02 13:06:13;;;;;;;8.55;5.37;;;;;;;19.49;16.61;100843.22;5588723;31;34068;-66
2022/03/02 13:09:20;;;;;;;9.93;5.20;;;;;;;15.87;19.37;100830.69;5587356;31;33925;-65
2022/03/02 13:12:35;;;;;;;10.02;5.43;;;;;;;16.67;18.97;100844.53;5588520;31;33831;-66
2022/03/02 13:15:40;;;;;;;9.23;5.60;;;;;;;16.02;20.36;100831.44;5588320;31;34630;-67
2022/03/02 13:18:43;;;;;;;10.38;5.97;;;;;;;15.50;21.02;100826.31;5588435;31;34666;-65
2022/03/02 13:21:59;;;;;;;10.82;5.60;;;;;;;13.73;23.21;100824.50;5588087;31;34199;-64
2022/03/02 13:25:06;;;;;;;11.15;5.65;;;;;;;13.96;22.82;100808.50;5588332;31;34323;-67
2022/03/02 13:28:12;;;;;;;11.63;5.90;;;;;;;13.85;22.59;100799.06;5588193;31;34287;-65
2022/03/02 13:31:17;;;;;;;9.88;5.95;;;;;;;14.76;21.80;100799.72;5588131;31;34557;-66
2022/03/02 13:34:22;;;;;;;8.63;5.75;;;;;;;15.75;20.75;100802.75;5588374;31;34579;-64
2022/03/02 13:37:55;;;;;;;11.57;5.50;;;;;;;14.83;21.62;100797.13;5587818;31;33871;-65
2022/03/02 13:40:58;;;;;;;11.93;5.72;;;;;;;13.58;23.49;100795.12;5588229;31;34106;-64
2022/03/02 13:44:18;;;;;;;11.77;6.00;;;;;;;13.24;23.07;100790.16;5588137;31;34430;-64
2022/03/02 13:47:26;;;;;;;10.88;5.60;;;;;;;12.46;24.55;100787.44;5587938;31;34662;-64
2022/03/02 13:50:58;;;;;;;11.15;5.47;;;;;;;13.07;23.64;100793.84;5587866;31;34042;-65
2022/03/02 13:54:03;;;;;;;8.48;5.57;;;;;;;14.16;22.24;100785.63;5587703;31;34200;-65
2022/03/02 13:57:17;;;;;;;12.45;5.35;;;;;;;14.12;22.45;100781.69;5587444;31;34023;-65
2022/03/02 14:00:20;;;;;;;10.55;5.55;;;;;;;16.42;20.14;100784.38;5587676;31;34689;-65
2022/03/02 14:03:29;;;;;;;13.82;6.07;;;;;;;16.13;20.14;100776.53;5587589;31;34690;-65
2022/03/02 14:06:37;;;;;;;11.48;5.37;;;;;;;18.78;17.90;100781.41;5587554;31;33851;-64
2022/03/02 14:09:41;;;;;;;9.27;5.93;;;;;;;17.20;18.90;100772.44;5587592;31;34826;-64
2022/03/02 14:12:50;;;;;;;11.52;5.65;;;;;;;16.04;20.49;100763.31;5587273;31;34568;-64
2022/03/02 14:15:53;;;;;;;12.50;5.80;;;;;;;16.76;19.92;100760.28;5586635;31;34595;-64
2022/03/02 14:19:03;;;;;;;11.15;5.35;;;;;;;14.52;22.21;100761.81;5587263;31;34391;-63